Time;durP1;ratioP1;P1;durP2;ratioP2;P2;SDS_P1;SDS_P2;PMS_P1;PMS_P2;Temp;Humidity;BMP_temperature;BMP_pressure;BME280_temperature;BME280_humidity;BME280_pressure;Samples;Min_cycle;Max_cycle;Signal;HPM_P1;HPM_P2
2024/01/12 00:01:38;;;;;;;39.20;25.38;;;-3.00;99.90;;;;;;5059994;28;20447;-70
2024/01/12 00:04:24;;;;;;;37.95;25.92;;;-2.90;99.90;;;;;;5055418;28;20225;-70
2024/01/12 00:07:09;;;;;;;38.05;24.48;;;-2.70;99.90;;;;;;5059978;28;20224;-70
2024/01/12 00:09:55;;;;;;;39.10;25.80;;;-2.70;99.90;;;;;;5060567;28;20245;-70
2024/01/12 00:12:41;;;;;;;39.47;25.35;;;-2.60;99.90;;;;;;5062637;28;20691;-70
2024/01/12 00:15:26;;;;;;;37.60;24.85;;;-2.50;99.90;;;;;;5058231;28;20204;-71
2024/01/12 00:18:13;;;;;;;41.75;25.02;;;-2.40;99.90;;;;;;5064850;28;20692;-69
2024/01/12 00:20:58;;;;;;;36.22;25.30;;;-2.40;99.90;;;;;;5047422;28;20284;-70
2024/01/12 00:23:44;;;;;;;37.72;25.30;;;-2.30;99.90;;;;;;5054120;28;20296;-70
2024/01/12 00:26:30;;;;;;;36.92;24.02;;;-2.30;99.90;;;;;;5057937;28;20221;-69
2024/01/12 00:29:16;;;;;;;39.80;24.77;;;-2.10;99.90;;;;;;5064303;28;20228;-70
2024/01/12 00:32:02;;;;;;;38.28;23.17;;;-2.10;99.90;;;;;;5056045;28;20696;-71
2024/01/12 00:34:49;;;;;;;31.00;21.02;;;-2.00;99.90;;;;;;5063906;28;20778;-70
2024/01/12 00:37:35;;;;;;;38.33;23.92;;;-2.10;99.90;;;;;;5063008;28;20204;-70
2024/01/12 00:40:21;;;;;;;34.80;22.30;;;-2.20;99.90;;;;;;5051254;28;20227;-70
2024/01/12 00:43:07;;;;;;;30.92;22.30;;;-2.10;99.90;;;;;;5056485;28;20228;-70
2024/01/12 00:45:52;;;;;;;35.60;24.27;;;-2.30;99.90;;;;;;5058256;28;20348;-70
2024/01/12 00:48:38;;;;;;;36.95;22.98;;;-2.40;99.90;;;;;;5053378;28;20232;-70
2024/01/12 00:51:25;;;;;;;33.63;21.13;;;-2.40;99.90;;;;;;5059750;28;20224;-70
2024/01/12 00:54:11;;;;;;;33.13;22.83;;;-2.50;99.90;;;;;;5058606;28;20207;-70
2024/01/12 00:56:56;;;;;;;32.97;21.92;;;-2.50;99.90;;;;;;5062740;28;20350;-70
2024/01/12 00:59:42;;;;;;;31.42;20.70;;;-2.40;99.90;;;;;;5064902;28;20286;-70
2024/01/12 01:02:28;;;;;;;26.60;19.40;;;-2.50;99.90;;;;;;5057492;28;20222;-70
2024/01/12 01:05:13;;;;;;;32.33;21.80;;;-2.40;99.90;;;;;;5045247;28;20200;-70
2024/01/12 01:08:00;;;;;;;31.77;21.67;;;-2.40;99.90;;;;;;5061144;28;20687;-70
2024/01/12 01:10:46;;;;;;;32.03;21.83;;;-2.50;99.90;;;;;;5057578;28;20705;-70
2024/01/12 01:13:35;;;;;;;33.83;21.90;;;-2.70;99.90;;;;;;5060106;28;20227;-70
2024/01/12 01:16:21;;;;;;;46.95;22.88;;;-2.70;99.90;;;;;;5056319;28;20205;-70
2024/01/12 01:19:07;;;;;;;32.22;21.92;;;-2.80;99.90;;;;;;5051338;28;20589;-70
2024/01/12 01:21:52;;;;;;;33.80;22.58;;;-2.80;99.90;;;;;;5055410;28;20196;-70
2024/01/12 01:24:40;;;;;;;35.60;23.40;;;-2.80;99.90;;;;;;5063158;28;20215;-70
2024/01/12 01:27:25;;;;;;;30.23;22.05;;;-2.70;99.90;;;;;;5056168;28;20220;-70
2024/01/12 01:30:13;;;;;;;35.28;23.10;;;-2.80;99.90;;;;;;5066455;28;20302;-70
2024/01/12 01:32:59;;;;;;;33.40;23.00;;;-3.00;99.90;;;;;;5063179;28;20201;-70
2024/01/12 01:35:45;;;;;;;33.58;23.30;;;-3.00;99.90;;;;;;5057527;28;20197;-70
2024/01/12 01:38:31;;;;;;;37.45;26.63;;;-3.10;99.90;;;;;;5051251;28;20306;-72
2024/01/12 01:41:18;;;;;;;40.28;24.75;;;-3.10;99.90;;;;;;5064556;28;20208;-70
2024/01/12 01:44:04;;;;;;;34.38;23.50;;;-3.00;99.90;;;;;;5058073;28;20206;-70
2024/01/12 01:46:50;;;;;;;37.00;25.02;;;-3.10;99.90;;;;;;5062153;28;20334;-70
2024/01/12 01:49:36;;;;;;;33.67;24.15;;;-3.00;99.90;;;;;;5055606;28;20414;-70
2024/01/12 01:52:22;;;;;;;32.55;22.40;;;-3.00;99.90;;;;;;5056863;28;20201;-73
2024/01/12 01:55:09;;;;;;;33.78;22.45;;;-3.10;99.90;;;;;;5058757;28;20197;-72
2024/01/12 01:57:57;;;;;;;37.88;23.98;;;-3.10;99.90;;;;;;5062845;28;20197;-70
2024/01/12 02:00:44;;;;;;;34.45;24.15;;;-3.20;99.90;;;;;;5046653;28;20212;-70
2024/01/12 02:03:31;;;;;;;33.75;24.77;;;-3.00;99.90;;;;;;5055920;28;20766;-70
2024/01/12 02:06:17;;;;;;;34.38;23.00;;;-3.00;99.90;;;;;;5055615;28;20363;-70
2024/01/12 02:09:04;;;;;;;32.15;23.60;;;-3.20;99.90;;;;;;5068321;28;20318;-70
2024/01/12 02:11:50;;;;;;;32.78;25.08;;;-3.50;99.90;;;;;;5066732;28;20567;-71
2024/01/12 02:14:37;;;;;;;37.05;24.50;;;-3.50;99.90;;;;;;5070453;28;20210;-71
2024/01/12 02:17:23;;;;;;;38.13;24.45;;;-3.70;99.90;;;;;;5066382;28;20200;-71
2024/01/12 02:20:09;;;;;;;38.17;25.00;;;-3.70;99.90;;;;;;5066359;28;20560;-71
2024/01/12 02:22:56;;;;;;;41.33;25.58;;;-3.60;99.90;;;;;;5061615;28;20205;-71
2024/01/12 02:25:44;;;;;;;31.73;23.27;;;-3.40;99.90;;;;;;5048146;28;20209;-71
2024/01/12 02:28:32;;;;;;;37.05;25.25;;;-3.40;99.90;;;;;;5060584;28;20315;-71
2024/01/12 02:31:17;;;;;;;32.72;23.83;;;-3.40;99.90;;;;;;5070453;28;20205;-71
2024/01/12 02:34:03;;;;;;;31.85;22.83;;;-3.40;99.90;;;;;;5068166;28;20264;-71
2024/01/12 02:36:49;;;;;;;37.85;24.27;;;-3.50;99.90;;;;;;5052873;28;20581;-71
2024/01/12 02:39:36;;;;;;;33.75;23.80;;;-3.50;99.90;;;;;;5060170;28;20233;-71
2024/01/12 02:42:21;;;;;;;35.65;25.70;;;-3.60;99.90;;;;;;5051086;28;20271;-71
2024/01/12 02:45:07;;;;;;;35.88;24.42;;;-3.60;99.90;;;;;;5056081;28;20597;-71
2024/01/12 02:47:53;;;;;;;36.40;24.80;;;-3.60;99.90;;;;;;5055804;28;20220;-71
2024/01/12 02:50:39;;;;;;;31.33;22.75;;;-3.50;99.90;;;;;;5061384;28;20212;-71
2024/01/12 02:53:24;;;;;;;44.85;25.15;;;-3.70;99.90;;;;;;5046193;28;20201;-71
2024/01/12 02:56:11;;;;;;;35.58;22.80;;;-3.90;99.90;;;;;;5050308;28;20683;-71
2024/01/12 02:58:57;;;;;;;34.33;22.90;;;-3.80;99.90;;;;;;5050765;28;20236;-71
2024/01/12 03:01:43;;;;;;;31.30;22.52;;;-3.80;99.90;;;;;;5052019;28;20209;-71
2024/01/12 03:04:28;;;;;;;31.15;22.27;;;-3.80;99.90;;;;;;5051892;28;20340;-71
2024/01/12 03:07:14;;;;;;;34.80;22.13;;;-3.80;99.90;;;;;;5051716;28;20322;-71
2024/01/12 03:10:00;;;;;;;32.65;23.30;;;-3.80;99.90;;;;;;5057035;28;20280;-71
2024/01/12 03:12:47;;;;;;;32.30;22.02;;;-3.80;99.90;;;;;;5056073;28;20212;-71
2024/01/12 03:15:32;;;;;;;34.08;22.90;;;-3.80;99.90;;;;;;5055027;28;20204;-71
2024/01/12 03:18:18;;;;;;;35.08;24.65;;;-3.70;99.90;;;;;;5046715;28;20381;-73
2024/01/12 03:21:04;;;;;;;35.10;22.67;;;-3.60;99.90;;;;;;5047214;28;20676;-71
2024/01/12 03:23:49;;;;;;;30.90;19.75;;;-3.50;99.90;;;;;;5065004;28;20208;-71
2024/01/12 03:26:37;;;;;;;34.70;22.15;;;-3.30;99.90;;;;;;5050098;28;20235;-71
2024/01/12 03:29:24;;;;;;;35.20;22.67;;;-3.30;99.90;;;;;;5057912;28;20239;-71
2024/01/12 03:32:10;;;;;;;44.25;23.13;;;-3.10;99.90;;;;;;5046066;28;20208;-72
2024/01/12 03:34:56;;;;;;;34.55;21.95;;;-3.30;99.90;;;;;;5045315;28;20209;-71
2024/01/12 03:37:42;;;;;;;32.80;23.58;;;-3.30;99.90;;;;;;5040225;28;20197;-71
2024/01/12 03:40:27;;;;;;;34.75;23.38;;;-3.50;99.90;;;;;;5038487;28;20232;-72
2024/01/12 03:43:13;;;;;;;38.15;21.65;;;-3.50;99.90;;;;;;5045320;28;20580;-71
2024/01/12 03:46:00;;;;;;;34.50;24.15;;;-3.40;99.90;;;;;;5044904;28;20637;-72
2024/01/12 03:48:45;;;;;;;31.13;21.88;;;-3.50;99.90;;;;;;5042651;28;20310;-71
2024/01/12 03:51:31;;;;;;;36.00;23.83;;;-3.40;99.90;;;;;;5039421;28;20641;-71
2024/01/12 03:54:17;;;;;;;38.70;26.60;;;-3.60;99.90;;;;;;5044548;28;20204;-72
2024/01/12 03:57:03;;;;;;;34.58;23.55;;;-3.70;99.90;;;;;;5042512;28;20197;-72
2024/01/12 03:59:48;;;;;;;38.03;24.77;;;-3.70;99.90;;;;;;5043012;28;20349;-72
2024/01/12 04:02:36;;;;;;;37.88;24.25;;;-3.80;99.90;;;;;;5050638;28;20633;-71
2024/01/12 04:05:22;;;;;;;40.50;26.88;;;-3.70;99.90;;;;;;5049463;28;20212;-72
2024/01/12 04:08:07;;;;;;;31.38;23.38;;;-3.60;99.90;;;;;;5039508;28;20236;-72
2024/01/12 04:10:53;;;;;;;35.00;22.80;;;-3.50;99.90;;;;;;5038803;28;20270;-72
2024/01/12 04:13:39;;;;;;;36.42;22.92;;;-3.50;99.90;;;;;;5037402;28;20209;-71
2024/01/12 04:16:25;;;;;;;38.00;25.25;;;-3.50;99.90;;;;;;5040891;28;21803;-72
2024/01/12 04:19:13;;;;;;;37.65;25.92;;;-3.70;99.90;;;;;;5045171;28;20223;-71
2024/01/12 04:21:58;;;;;;;36.63;26.02;;;-3.70;99.90;;;;;;5045346;28;20263;-71
2024/01/12 04:24:44;;;;;;;36.67;26.35;;;-3.70;99.90;;;;;;5041177;28;20220;-71
2024/01/12 04:27:29;;;;;;;36.22;25.05;;;-3.70;99.90;;;;;;5044616;28;20228;-71
2024/01/12 04:30:15;;;;;;;34.58;24.35;;;-3.70;99.90;;;;;;5044025;28;20253;-71
2024/01/12 04:33:00;;;;;;;40.30;25.98;;;-3.70;99.90;;;;;;5049961;28;20747;-71
2024/01/12 04:35:48;;;;;;;42.22;25.60;;;-3.70;99.90;;;;;;5040654;28;20228;-71
2024/01/12 04:38:33;;;;;;;36.60;25.17;;;-3.80;99.90;;;;;;5048224;28;20228;-71
2024/01/12 04:41:19;;;;;;;39.42;26.27;;;-3.80;99.90;;;;;;5034663;28;20198;-71
2024/01/12 04:44:05;;;;;;;34.78;24.13;;;-3.80;99.90;;;;;;5047213;28;20290;-70
2024/01/12 04:46:50;;;;;;;35.70;25.13;;;-3.70;99.90;;;;;;5046588;28;20252;-71
2024/01/12 04:49:35;;;;;;;36.90;25.58;;;-3.60;99.90;;;;;;5042340;28;20720;-71
2024/01/12 04:52:23;;;;;;;35.58;23.80;;;-3.40;99.90;;;;;;5046595;28;20232;-71
2024/01/12 04:55:09;;;;;;;32.13;23.60;;;-3.20;99.90;;;;;;5049734;28;20246;-71
2024/01/12 04:57:54;;;;;;;38.13;22.80;;;-3.10;99.90;;;;;;5047320;28;20200;-71
2024/01/12 05:00:40;;;;;;;37.13;23.33;;;-3.00;99.90;;;;;;5040654;28;20359;-71
2024/01/12 05:03:26;;;;;;;36.53;24.75;;;-2.90;99.90;;;;;;5048962;28;20335;-71
2024/01/12 05:06:12;;;;;;;37.45;22.42;;;-2.80;99.90;;;;;;5045671;28;20590;-71
2024/01/12 05:08:58;;;;;;;36.15;23.10;;;-2.70;99.90;;;;;;5046207;28;20232;-71
2024/01/12 05:11:44;;;;;;;36.75;24.88;;;-2.90;99.90;;;;;;5061563;28;20302;-71
2024/01/12 05:14:30;;;;;;;38.40;26.40;;;-2.90;99.90;;;;;;5049759;28;20343;-71
2024/01/12 05:17:15;;;;;;;36.05;27.05;;;-3.00;99.90;;;;;;5058139;28;20258;-71
2024/01/12 05:20:06;;;;;;;49.20;34.45;;;-2.90;99.90;;;;;;5051291;28;20431;-71
2024/01/12 05:22:52;;;;;;;49.85;37.92;;;-2.80;99.90;;;;;;5048645;28;24588;-72
2024/01/12 05:25:39;;;;;;;45.53;34.38;;;-2.70;99.90;;;;;;5044169;28;20204;-73
2024/01/12 05:28:24;;;;;;;48.08;37.08;;;-2.70;99.90;;;;;;5049935;28;20241;-71
2024/01/12 05:31:10;;;;;;;44.00;33.88;;;-2.60;99.90;;;;;;5057791;28;20211;-70
2024/01/12 05:33:56;;;;;;;43.47;33.33;;;-2.60;99.90;;;;;;5050562;28;20209;-71
2024/01/12 05:36:41;;;;;;;44.42;31.48;;;-2.70;99.90;;;;;;5051064;28;20198;-71
2024/01/12 05:39:27;;;;;;;47.20;30.35;;;-2.70;99.90;;;;;;5047170;28;20425;-74
2024/01/12 05:42:14;;;;;;;45.10;32.35;;;-2.60;99.90;;;;;;5054014;28;20578;-70
2024/01/12 05:45:00;;;;;;;43.60;29.17;;;-2.70;99.90;;;;;;5053154;28;20283;-72
2024/01/12 05:47:46;;;;;;;40.97;29.40;;;-2.60;99.90;;;;;;5061853;28;20653;-71
2024/01/12 05:50:31;;;;;;;41.17;27.85;;;-2.50;99.90;;;;;;5046318;28;20209;-70
2024/01/12 05:53:21;;;;;;;42.60;31.38;;;-2.50;99.90;;;;;;5054033;28;20533;-70
2024/01/12 05:56:07;;;;;;;38.95;26.50;;;-2.30;99.90;;;;;;5054168;28;20275;-72
2024/01/12 05:58:54;;;;;;;42.03;27.70;;;-2.20;99.90;;;;;;5051828;28;20573;-71
2024/01/12 06:01:40;;;;;;;36.17;25.15;;;-2.20;99.90;;;;;;5049219;28;20211;-71
2024/01/12 06:04:26;;;;;;;38.63;26.35;;;-2.20;99.90;;;;;;5055593;28;20850;-70
2024/01/12 06:07:11;;;;;;;39.20;26.73;;;-2.20;99.90;;;;;;5052968;28;20683;-71
2024/01/12 06:09:57;;;;;;;35.33;24.80;;;-2.20;99.90;;;;;;5051478;28;20338;-70
2024/01/12 06:12:43;;;;;;;37.92;25.40;;;-2.10;99.90;;;;;;5053845;28;20310;-72
2024/01/12 06:15:31;;;;;;;44.60;30.65;;;-2.10;99.90;;;;;;5051912;28;20205;-71
2024/01/12 06:18:16;;;;;;;43.75;28.52;;;-2.00;99.90;;;;;;5061968;28;20205;-71
2024/01/12 06:21:03;;;;;;;34.85;26.42;;;-1.90;99.90;;;;;;5059486;28;20575;-70
2024/01/12 06:23:48;;;;;;;37.38;25.13;;;-2.00;99.90;;;;;;5054714;28;20277;-71
2024/01/12 06:26:34;;;;;;;35.60;24.70;;;-2.10;99.90;;;;;;5049041;28;20207;-71
2024/01/12 06:29:19;;;;;;;34.88;25.13;;;-2.00;99.90;;;;;;5061464;28;20342;-72
2024/01/12 06:32:06;;;;;;;34.92;25.02;;;-2.00;99.90;;;;;;5054570;28;20321;-71
2024/01/12 06:34:52;;;;;;;40.58;29.35;;;-2.00;99.90;;;;;;5051942;28;20239;-71
2024/01/12 06:37:38;;;;;;;41.65;29.23;;;-2.00;99.90;;;;;;5054135;28;20276;-71
2024/01/12 06:40:24;;;;;;;47.83;30.38;;;-1.80;99.90;;;;;;5068104;28;20224;-72
2024/01/12 06:43:10;;;;;;;35.75;27.00;;;-1.90;99.90;;;;;;5056492;28;20239;-71
2024/01/12 06:45:55;;;;;;;39.53;28.33;;;-1.70;99.90;;;;;;5069341;28;20208;-71
2024/01/12 06:48:42;;;;;;;40.53;28.85;;;-1.70;99.90;;;;;;5046292;28;20343;-71
2024/01/12 06:51:28;;;;;;;33.45;24.10;;;-1.70;99.90;;;;;;5049956;28;20215;-71
2024/01/12 06:54:13;;;;;;;35.35;25.80;;;-1.70;99.90;;;;;;5054892;28;20208;-70
2024/01/12 06:56:59;;;;;;;35.50;24.30;;;-1.60;99.90;;;;;;5056435;28;20209;-70
2024/01/12 06:59:45;;;;;;;35.85;23.95;;;-1.60;99.90;;;;;;5058011;28;20320;-72
2024/01/12 07:02:30;;;;;;;29.92;22.63;;;-1.50;99.90;;;;;;5053991;28;20226;-71
2024/01/12 07:05:17;;;;;;;32.78;21.77;;;-1.50;99.90;;;;;;5054811;28;20282;-74
2024/01/12 07:08:03;;;;;;;31.92;23.27;;;-1.40;99.90;;;;;;5058001;28;20336;-71
2024/01/12 07:10:49;;;;;;;37.30;25.98;;;-1.50;99.90;;;;;;5049136;28;20208;-71
2024/01/12 07:13:35;;;;;;;37.67;25.50;;;-1.50;99.90;;;;;;5050513;28;20621;-71
2024/01/12 07:16:20;;;;;;;36.90;25.88;;;-1.50;99.90;;;;;;5060822;28;20691;-72
2024/01/12 07:19:07;;;;;;;33.92;25.70;;;-1.40;99.90;;;;;;5056955;28;20236;-72
2024/01/12 07:21:53;;;;;;;30.52;22.70;;;-1.30;99.90;;;;;;5057484;28;20280;-70
2024/01/12 07:24:39;;;;;;;34.05;24.63;;;-1.40;99.90;;;;;;5050537;28;20330;-71
2024/01/12 07:27:25;;;;;;;32.97;23.40;;;-1.40;99.90;;;;;;5054193;28;20205;-73
2024/01/12 07:30:11;;;;;;;32.03;23.42;;;-1.40;99.90;;;;;;5053060;28;20347;-71
2024/01/12 07:32:56;;;;;;;33.42;24.48;;;-1.40;99.90;;;;;;5052400;28;20423;-72
2024/01/12 07:35:42;;;;;;;31.95;23.02;;;-1.40;99.90;;;;;;5049074;28;20204;-70
2024/01/12 07:38:29;;;;;;;31.63;22.38;;;-1.30;99.90;;;;;;5053789;28;20572;-71
2024/01/12 07:41:15;;;;;;;31.90;22.02;;;-1.30;99.90;;;;;;5044938;28;20678;-73
2024/01/12 07:44:00;;;;;;;32.42;22.73;;;-1.30;99.90;;;;;;5059153;28;20562;-75
2024/01/12 07:46:46;;;;;;;31.92;24.20;;;-1.30;99.90;;;;;;5046886;28;20583;-71
2024/01/12 07:49:33;;;;;;;34.63;25.10;;;-1.20;99.90;;;;;;5049592;28;20232;-70
2024/01/12 07:52:18;;;;;;;31.85;21.90;;;-1.20;99.90;;;;;;5051944;28;20203;-69
2024/01/12 07:55:06;;;;;;;35.38;25.05;;;-1.20;99.90;;;;;;5053847;28;20570;-71
2024/01/12 07:57:52;;;;;;;31.27;21.67;;;-1.20;99.90;;;;;;5046064;28;20321;-71
2024/01/12 08:00:37;;;;;;;30.75;23.05;;;-1.20;99.90;;;;;;5048998;28;20220;-70
2024/01/12 08:03:23;;;;;;;25.70;21.90;;;-1.10;99.90;;;;;;5056326;28;20205;-70
2024/01/12 08:06:09;;;;;;;26.58;20.83;;;-1.00;99.90;;;;;;5052082;28;20208;-71
2024/01/12 08:08:54;;;;;;;24.50;19.42;;;-0.90;99.90;;;;;;5061914;28;20231;-70
2024/01/12 08:11:42;;;;;;;23.15;19.23;;;-0.80;99.90;;;;;;5050220;28;20223;-71
2024/01/12 08:14:27;;;;;;;29.08;19.67;;;-0.90;99.90;;;;;;5059642;28;20389;-70
2024/01/12 08:17:13;;;;;;;27.45;18.92;;;-0.90;99.90;;;;;;5058259;28;20220;-69
2024/01/12 08:19:58;;;;;;;25.77;19.52;;;-0.80;99.90;;;;;;5054391;28;20724;-73
2024/01/12 08:22:44;;;;;;;24.60;18.73;;;-0.80;99.90;;;;;;5062953;28;20196;-71
2024/01/12 08:25:29;;;;;;;26.38;19.35;;;-0.80;99.90;;;;;;5056271;28;20263;-71
2024/01/12 08:28:16;;;;;;;25.65;15.57;;;-0.70;99.90;;;;;;5060717;28;20231;-71
2024/01/12 08:31:03;;;;;;;20.25;17.05;;;-0.60;99.90;;;;;;5049823;28;20225;-73
2024/01/12 08:33:49;;;;;;;25.25;17.92;;;-0.50;99.90;;;;;;5053305;28;20252;-72
2024/01/12 08:36:35;;;;;;;24.25;17.65;;;-0.60;99.90;;;;;;5050471;28;20745;-71
2024/01/12 08:39:21;;;;;;;26.58;19.02;;;-0.50;99.90;;;;;;5054152;28;20227;-70
2024/01/12 08:42:07;;;;;;;29.92;19.00;;;-0.60;99.90;;;;;;5052676;28;20207;-71
2024/01/12 08:44:54;;;;;;;28.05;19.17;;;-0.60;99.90;;;;;;5056188;28;20204;-70
2024/01/12 08:47:39;;;;;;;29.50;19.05;;;-0.60;99.90;;;;;;5046321;28;20251;-70
2024/01/12 08:50:25;;;;;;;29.50;21.40;;;-0.60;99.90;;;;;;5047754;28;20229;-71
2024/01/12 08:53:11;;;;;;;26.83;18.23;;;-0.60;99.90;;;;;;5053212;28;20278;-71
2024/01/12 08:55:57;;;;;;;27.80;20.15;;;-0.50;99.90;;;;;;5050631;28;20275;-71
2024/01/12 08:58:43;;;;;;;27.20;20.20;;;-0.40;99.90;;;;;;5054919;28;20571;-70
2024/01/12 09:01:30;;;;;;;27.00;20.63;;;-0.40;99.90;;;;;;5057604;28;20584;-71
2024/01/12 09:04:15;;;;;;;28.73;18.23;;;-0.30;99.90;;;;;;5055909;28;20285;-71
2024/01/12 09:07:01;;;;;;;32.45;21.73;;;-0.40;99.90;;;;;;5046101;28;20338;-70
2024/01/12 09:09:47;;;;;;;28.63;20.55;;;-0.30;99.90;;;;;;5055919;28;20601;-71
2024/01/12 09:12:32;;;;;;;29.65;20.88;;;-0.20;99.90;;;;;;5056263;28;20224;-71
2024/01/12 09:15:18;;;;;;;59.00;38.47;;;-0.20;99.90;;;;;;5060854;28;20614;-70
2024/01/12 09:18:06;;;;;;;32.30;24.38;;;-0.30;99.90;;;;;;5068319;28;20200;-71
2024/01/12 09:20:52;;;;;;;34.03;19.88;;;-0.30;99.90;;;;;;5057649;28;20475;-70
2024/01/12 09:23:37;;;;;;;38.25;21.88;;;-0.20;99.90;;;;;;5050569;28;20268;-71
2024/01/12 09:26:23;;;;;;;42.47;26.15;;;-0.20;99.90;;;;;;5066281;28;20224;-70
2024/01/12 09:29:09;;;;;;;38.72;22.58;;;-0.20;99.90;;;;;;5054537;28;20235;-69
2024/01/12 09:31:55;;;;;;;30.98;21.45;;;-0.30;99.90;;;;;;5061327;28;20235;-70
2024/01/12 09:34:42;;;;;;;31.45;22.58;;;-0.20;99.90;;;;;;5055684;28;20204;-70
2024/01/12 09:37:27;;;;;;;28.88;20.67;;;-0.10;99.90;;;;;;5056928;28;20216;-70
2024/01/12 09:40:13;;;;;;;30.45;21.25;;;0.10;99.90;;;;;;5054960;28;20220;-73
2024/01/12 09:43:01;;;;;;;29.50;19.50;;;0.00;99.90;;;;;;5058956;28;20205;-70
2024/01/12 09:45:47;;;;;;;33.53;23.17;;;0.00;99.90;;;;;;5049638;28;20210;-73
2024/01/12 09:48:34;;;;;;;33.95;23.98;;;0.00;99.90;;;;;;5055546;28;20287;-70
2024/01/12 09:51:22;;;;;;;30.33;21.38;;;0.00;99.90;;;;;;5061030;28;20208;-71
2024/01/12 09:54:07;;;;;;;32.15;19.70;;;0.00;99.90;;;;;;5049546;28;20209;-70
2024/01/12 09:56:53;;;;;;;31.08;21.00;;;0.00;99.90;;;;;;5051048;28;20201;-70
2024/01/12 09:59:39;;;;;;;30.13;19.40;;;0.00;99.90;;;;;;5057000;28;20220;-71
2024/01/12 10:02:25;;;;;;;28.80;19.05;;;0.00;99.90;;;;;;5054380;28;20213;-70
2024/01/12 10:05:11;;;;;;;31.92;21.30;;;0.00;99.90;;;;;;5062514;28;20211;-72
2024/01/12 10:07:58;;;;;;;37.17;22.90;;;0.00;99.90;;;;;;5065978;28;20334;-71
2024/01/12 10:10:44;;;;;;;28.25;20.27;;;0.10;99.90;;;;;;5051061;28;20208;-72
2024/01/12 10:13:29;;;;;;;47.45;30.92;;;0.20;99.90;;;;;;5055829;28;20205;-71
2024/01/12 10:16:16;;;;;;;51.22;27.52;;;0.10;99.90;;;;;;5052137;28;20216;-72
2024/01/12 10:19:02;;;;;;;32.17;21.08;;;0.20;99.90;;;;;;5061068;28;20232;-70
2024/01/12 10:21:49;;;;;;;31.38;21.42;;;0.30;99.90;;;;;;5062908;28;20563;-71
2024/01/12 10:24:36;;;;;;;32.65;22.10;;;0.30;99.90;;;;;;5064460;28;20204;-72
2024/01/12 10:27:21;;;;;;;30.48;21.85;;;0.30;99.90;;;;;;5054247;28;20200;-72
2024/01/12 10:30:10;;;;;;;25.75;19.13;;;0.20;99.90;;;;;;5056023;28;20231;-71
2024/01/12 10:32:55;;;;;;;26.20;19.30;;;0.20;99.90;;;;;;5045035;28;20511;-71
2024/01/12 10:35:41;;;;;;;25.67;18.38;;;0.30;99.90;;;;;;5054495;28;20205;-69
2024/01/12 10:38:30;;;;;;;25.48;17.45;;;0.30;99.90;;;;;;5058739;28;20302;-70
2024/01/12 10:41:21;;;;;;;26.50;15.60;;;0.30;99.90;;;;;;5058270;28;20331;-70
2024/01/12 10:44:08;;;;;;;25.23;15.45;;;0.50;99.90;;;;;;5061122;28;20232;-69
2024/01/12 10:46:58;;;;;;;24.38;15.90;;;0.50;99.90;;;;;;5051878;28;20209;-70
2024/01/12 10:49:49;;;;;;;22.80;16.05;;;0.50;99.90;;;;;;5052716;28;20233;-70
2024/01/12 10:52:45;;;;;;;21.50;14.80;;;0.60;99.90;;;;;;5056340;28;20288;-71
2024/01/12 10:55:34;;;;;;;21.63;15.68;;;0.70;99.90;;;;;;5055408;28;20208;-72
2024/01/12 10:58:22;;;;;;;25.55;15.00;;;0.70;99.90;;;;;;5059712;28;20219;-70
2024/01/12 11:01:08;;;;;;;20.30;13.40;;;0.70;99.90;;;;;;5059631;28;20633;-70
2024/01/12 11:03:54;;;;;;;20.50;13.35;;;0.60;99.90;;;;;;5057453;28;20226;-71
2024/01/12 11:06:43;;;;;;;22.58;13.98;;;0.60;99.90;;;;;;5059453;28;20574;-71
2024/01/12 11:09:29;;;;;;;16.85;12.50;;;0.70;99.90;;;;;;5061479;28;20366;-75
2024/01/12 11:12:24;;;;;;;21.33;14.95;;;0.80;99.90;;;;;;5055169;28;20747;-71
2024/01/12 11:15:11;;;;;;;18.38;11.90;;;0.70;99.90;;;;;;5063202;28;20209;-70
2024/01/12 11:17:58;;;;;;;20.48;13.27;;;0.80;99.90;;;;;;5057523;28;20217;-71
2024/01/12 11:20:45;;;;;;;20.42;14.65;;;0.90;99.90;;;;;;5062818;28;20242;-71
2024/01/12 11:23:30;;;;;;;17.73;13.20;;;1.00;99.90;;;;;;5053912;28;20209;-71
2024/01/12 11:26:16;;;;;;;19.23;12.35;;;1.00;99.90;;;;;;5058990;28;20196;-71
2024/01/12 11:29:01;;;;;;;20.35;13.27;;;1.00;99.90;;;;;;5060155;28;20236;-72
2024/01/12 11:31:52;;;;;;;19.30;12.30;;;1.00;99.90;;;;;;5058789;28;20600;-71
2024/01/12 11:34:38;;;;;;;19.02;12.45;;;1.00;99.90;;;;;;5060459;28;20219;-71
2024/01/12 11:37:27;;;;;;;16.67;12.30;;;1.00;99.90;;;;;;5050311;28;20208;-72
2024/01/12 11:40:14;;;;;;;20.92;14.18;;;1.10;99.90;;;;;;5055384;28;20219;-71
2024/01/12 11:43:01;;;;;;;17.73;12.25;;;1.10;99.90;;;;;;5060488;28;20210;-71
2024/01/12 11:45:50;;;;;;;17.27;11.27;;;1.10;99.90;;;;;;5051793;28;20210;-71
2024/01/12 11:48:37;;;;;;;18.70;11.60;;;1.20;99.90;;;;;;5061814;28;20778;-71
2024/01/12 11:51:24;;;;;;;15.32;10.07;;;1.20;99.90;;;;;;5062519;28;20227;-72
2024/01/12 11:54:09;;;;;;;17.20;11.35;;;1.20;99.90;;;;;;5062442;28;20220;-73
2024/01/12 11:56:56;;;;;;;17.60;10.68;;;1.20;99.90;;;;;;5056259;28;20217;-71
2024/01/12 11:59:41;;;;;;;18.67;12.70;;;1.20;99.90;;;;;;5060558;28;20285;-71
2024/01/12 12:02:27;;;;;;;18.88;11.45;;;1.10;99.90;;;;;;5066457;28;20342;-71
2024/01/12 12:05:14;;;;;;;16.88;10.98;;;1.00;99.90;;;;;;5063478;28;20327;-71
2024/01/12 12:07:59;;;;;;;17.25;12.05;;;1.10;99.90;;;;;;5059483;28;20197;-71
2024/01/12 12:10:46;;;;;;;18.15;10.68;;;1.10;99.90;;;;;;5052151;28;20225;-71
2024/01/12 12:13:32;;;;;;;17.65;11.60;;;1.20;99.90;;;;;;5055250;28;20212;-71
2024/01/12 12:16:18;;;;;;;16.88;10.73;;;1.30;99.90;;;;;;5059841;28;20204;-71
2024/01/12 12:19:04;;;;;;;18.90;10.85;;;1.30;99.90;;;;;;5060557;28;20237;-71
2024/01/12 12:21:51;;;;;;;15.05;10.68;;;1.30;99.90;;;;;;5066904;28;20201;-71
2024/01/12 12:24:38;;;;;;;18.33;11.40;;;1.30;99.90;;;;;;5063271;28;20201;-72
2024/01/12 12:27:24;;;;;;;16.13;11.48;;;1.30;99.90;;;;;;5052916;28;20598;-71
2024/01/12 12:30:11;;;;;;;15.07;11.00;;;1.40;99.90;;;;;;5057472;28;20223;-71
2024/01/12 12:33:00;;;;;;;15.93;10.98;;;1.30;99.90;;;;;;5057294;28;20201;-71
2024/01/12 12:35:45;;;;;;;16.20;10.82;;;1.40;99.90;;;;;;5055679;28;20202;-71
2024/01/12 12:38:32;;;;;;;16.98;11.50;;;1.30;99.90;;;;;;5051050;28;20564;-70
2024/01/12 12:41:18;;;;;;;15.25;11.07;;;1.30;99.90;;;;;;5058418;28;20196;-71
2024/01/12 12:44:04;;;;;;;16.13;11.32;;;1.20;99.90;;;;;;5062569;28;20287;-71
2024/01/12 12:46:51;;;;;;;18.23;11.65;;;1.20;99.90;;;;;;5055819;28;20224;-71
2024/01/12 12:49:38;;;;;;;17.85;11.07;;;1.20;99.90;;;;;;5056618;28;20651;-71
2024/01/12 12:52:24;;;;;;;17.10;11.40;;;1.30;99.90;;;;;;5058341;28;20209;-71
2024/01/12 12:55:11;;;;;;;17.20;10.30;;;1.30;99.90;;;;;;5060203;28;20619;-71
2024/01/12 12:57:57;;;;;;;16.65;11.50;;;1.40;99.90;;;;;;5050813;28;20204;-71
2024/01/12 13:00:43;;;;;;;17.20;11.60;;;1.40;99.90;;;;;;5063863;28;20722;-70
2024/01/12 13:03:30;;;;;;;13.63;10.60;;;1.10;99.90;;;;;;5052376;28;20700;-71
2024/01/12 13:06:15;;;;;;;20.00;11.82;;;1.10;99.90;;;;;;5048702;28;20274;-71
2024/01/12 13:09:01;;;;;;;15.10;10.95;;;1.20;99.90;;;;;;5054379;28;20228;-70
2024/01/12 13:11:48;;;;;;;16.25;11.80;;;1.20;99.90;;;;;;5051408;28;20291;-72
2024/01/12 13:14:34;;;;;;;16.50;10.82;;;1.20;99.90;;;;;;5065764;28;20220;-71
2024/01/12 13:17:21;;;;;;;16.15;10.75;;;1.30;99.90;;;;;;5050912;28;20204;-71
2024/01/12 13:20:08;;;;;;;15.60;10.50;;;1.30;99.90;;;;;;5050241;28;20278;-71
2024/01/12 13:22:53;;;;;;;14.63;11.00;;;1.20;99.90;;;;;;5061498;28;20242;-71
2024/01/12 13:25:39;;;;;;;13.88;10.23;;;1.30;99.90;;;;;;5048564;28;20687;-72
2024/01/12 13:28:27;;;;;;;19.83;14.13;;;1.30;99.90;;;;;;5052535;28;20258;-71
2024/01/12 13:31:12;;;;;;;21.90;14.73;;;1.00;99.90;;;;;;5052227;28;20228;-72
2024/01/12 13:33:58;;;;;;;25.02;16.27;;;0.90;99.90;;;;;;5052862;28;20692;-71
2024/01/12 13:36:44;;;;;;;24.95;16.38;;;0.70;99.90;;;;;;5056542;28;20269;-71
2024/01/12 13:39:30;;;;;;;27.67;17.95;;;0.70;99.90;;;;;;5041491;28;20376;-71
2024/01/12 13:42:15;;;;;;;27.92;19.13;;;0.80;99.90;;;;;;5043222;28;20286;-71
2024/01/12 13:45:03;;;;;;;28.73;22.00;;;0.80;99.90;;;;;;5051600;28;20221;-71
2024/01/12 13:47:48;;;;;;;32.63;20.65;;;0.80;99.90;;;;;;5053472;28;20295;-71
2024/01/12 13:50:34;;;;;;;31.88;23.00;;;0.70;99.90;;;;;;5056555;28;20407;-71
2024/01/12 13:53:21;;;;;;;34.55;24.83;;;0.80;99.90;;;;;;5051015;28;20711;-71
2024/01/12 13:56:07;;;;;;;31.30;21.70;;;0.80;99.90;;;;;;5050354;28;20323;-71
2024/01/12 13:58:52;;;;;;;29.50;20.30;;;0.90;99.90;;;;;;5051179;28;20251;-71
2024/01/12 14:01:40;;;;;;;35.55;21.67;;;0.80;99.90;;;;;;5067683;28;20318;-71
2024/01/12 14:04:25;;;;;;;39.53;25.95;;;0.60;99.90;;;;;;5057618;28;20304;-71
2024/01/12 14:07:11;;;;;;;36.00;25.45;;;0.60;99.90;;;;;;5070356;28;20258;-72